createdAt,value
2022-09-04T00:02:24.823Z,5
2022-09-04T00:04:55.151Z,7
2022-09-04T00:07:25.402Z,8
2022-09-04T00:09:55.797Z,7
2022-09-04T00:12:26.933Z,6
2022-09-04T00:14:56.433Z,7
2022-09-04T00:17:26.797Z,6
2022-09-04T00:19:57.105Z,7
2022-09-04T00:22:27.484Z,6
2022-09-04T00:24:57.845Z,7
2022-09-04T00:27:28.200Z,8
2022-09-04T00:29:58.610Z,7
2022-09-04T00:32:28.865Z,6
2022-09-04T00:34:59.190Z,7
2022-09-04T00:37:29.550Z,7
2022-09-04T00:39:59.966Z,7
2022-09-04T00:42:30.246Z,9
2022-09-04T00:45:00.525Z,6
2022-09-04T00:47:30.878Z,9
2022-09-04T00:50:01.182Z,7
2022-09-04T00:52:31.562Z,7
2022-09-04T00:55:01.959Z,7
2022-09-04T00:57:32.318Z,7
2022-09-04T01:00:02.556Z,6
2022-09-04T01:02:32.999Z,7
2022-09-04T01:05:03.241Z,8
2022-09-04T01:07:33.717Z,9
2022-09-04T01:10:03.927Z,8
2022-09-04T01:12:34.310Z,8
2022-09-04T01:15:04.608Z,8
2022-09-04T01:17:34.975Z,8
2022-09-04T01:20:05.308Z,8
2022-09-04T01:22:35.690Z,7
2022-09-04T01:25:06.004Z,9
2022-09-04T01:27:36.398Z,7
2022-09-04T01:30:06.707Z,9
2022-09-04T01:32:37.085Z,9
2022-09-04T01:35:07.412Z,9
2022-09-04T01:37:37.782Z,8
2022-09-04T01:40:08.122Z,8
2022-09-04T01:42:38.522Z,8
2022-09-04T01:45:08.829Z,7
2022-09-04T01:47:39.225Z,10
2022-09-04T01:50:09.569Z,8
2022-09-04T01:52:40.029Z,8
2022-09-04T01:55:10.317Z,10
2022-09-04T01:57:40.817Z,7
2022-09-04T02:00:11.060Z,8
2022-09-04T02:02:41.534Z,7
2022-09-04T02:05:11.817Z,9
2022-09-04T02:07:41.982Z,10
2022-09-04T02:10:12.293Z,10
2022-09-04T02:12:42.696Z,8
2022-09-04T02:15:13.009Z,9
2022-09-04T02:17:43.414Z,9
2022-09-04T02:20:13.746Z,9
2022-09-04T02:22:44.157Z,6
2022-09-04T02:25:14.602Z,9
2022-09-04T02:27:44.961Z,10
2022-09-04T02:30:15.296Z,9
2022-09-04T02:32:45.702Z,8
2022-09-04T02:35:16.064Z,10
2022-09-04T02:37:46.466Z,8
2022-09-04T02:40:16.837Z,9
2022-09-04T02:42:47.282Z,10
2022-09-04T02:45:17.667Z,9
2022-09-04T02:47:48.102Z,10
2022-09-04T02:50:18.441Z,8
2022-09-04T02:52:48.998Z,11
2022-09-04T02:55:19.269Z,12
2022-09-04T02:57:49.390Z,11
2022-09-04T03:00:21.649Z,11
2022-09-04T03:02:50.156Z,11
2022-09-04T03:05:20.555Z,10
2022-09-04T03:07:50.988Z,8
2022-09-04T03:10:21.399Z,10
2022-09-04T03:12:51.869Z,11
2022-09-04T03:15:22.240Z,8
2022-09-04T03:17:53.465Z,11
2022-09-04T03:20:23.077Z,9
2022-09-04T03:22:53.522Z,11
2022-09-04T03:25:23.932Z,12
2022-09-04T03:27:54.488Z,11
2022-09-04T03:30:24.746Z,11
2022-09-04T03:32:55.199Z,11
2022-09-04T03:35:25.705Z,11
2022-09-04T03:37:56.135Z,11
2022-09-04T03:40:26.465Z,12
2022-09-04T03:42:56.894Z,10
2022-09-04T03:45:27.026Z,10
2022-09-04T03:47:57.440Z,10
2022-09-04T03:50:28.088Z,15
2022-09-04T03:52:58.821Z,10
2022-09-04T03:55:29.257Z,10
2022-09-04T03:57:59.682Z,10
2022-09-04T04:00:29.907Z,11
2022-09-04T04:03:00.323Z,14
2022-09-04T04:05:30.708Z,11
2022-09-04T04:08:01.139Z,13
2022-09-04T04:10:31.686Z,12
2022-09-04T04:13:02.055Z,12
2022-09-04T04:15:32.508Z,13
2022-09-04T04:18:02.925Z,13
2022-09-04T04:20:33.494Z,11
2022-09-04T04:23:03.467Z,13
2022-09-04T04:25:34.039Z,12
2022-09-04T04:28:05.428Z,14
2022-09-04T04:30:34.905Z,12
2022-09-04T04:33:05.483Z,10
2022-09-04T04:35:35.738Z,13
2022-09-04T04:38:06.157Z,12
2022-09-04T04:40:36.629Z,16
2022-09-04T04:43:07.087Z,11
2022-09-04T04:45:37.543Z,14
2022-09-04T04:48:08.016Z,13
2022-09-04T04:50:38.444Z,13
2022-09-04T04:53:08.878Z,13
2022-09-04T04:55:39.360Z,11
2022-09-04T04:58:09.546Z,13
2022-09-04T05:00:40.011Z,14
2022-09-04T05:03:10.435Z,11
2022-09-04T05:05:40.989Z,14
2022-09-04T05:08:11.351Z,13
2022-09-04T05:10:41.937Z,13
2022-09-04T05:13:12.296Z,15
2022-09-04T05:16:05.127Z,14
2022-09-04T05:18:13.204Z,14
2022-09-04T05:20:43.694Z,13
2022-09-04T05:23:14.153Z,13
2022-09-04T05:25:44.640Z,16
2022-09-04T05:28:15.113Z,13
2022-09-04T05:30:45.647Z,17
2022-09-04T05:33:16.023Z,14
2022-09-04T05:35:46.533Z,14
2022-09-04T05:38:16.970Z,13
2022-09-04T05:40:47.480Z,15
2022-09-04T05:43:17.948Z,15
2022-09-04T05:45:48.425Z,17
2022-09-04T05:48:18.947Z,15
2022-09-04T05:50:49.365Z,15
2022-09-04T05:53:19.597Z,15
2022-09-04T05:55:50.021Z,16
2022-09-04T05:58:20.557Z,13
2022-09-04T06:00:50.999Z,14
2022-09-04T06:03:21.499Z,14
2022-09-04T06:05:51.885Z,16
2022-09-04T06:08:27.859Z,10
2022-09-04T06:10:53.270Z,17
2022-09-04T06:13:23.977Z,11
2022-09-04T06:15:54.321Z,13
2022-09-04T06:18:24.839Z,13
2022-09-04T06:20:54.806Z,13
2022-09-04T06:23:25.222Z,12
2022-09-04T06:25:55.778Z,14
2022-09-04T06:28:26.296Z,12
2022-09-04T06:30:56.605Z,11
2022-09-04T06:33:26.975Z,13
2022-09-04T06:35:57.420Z,12
2022-09-04T06:38:27.843Z,11
2022-09-04T06:40:58.337Z,11
2022-09-04T06:43:29.712Z,13
2022-09-04T06:46:02.147Z,13
2022-09-04T06:48:29.240Z,14
2022-09-04T06:50:59.758Z,13
2022-09-04T06:53:30.062Z,10
2022-09-04T06:56:00.500Z,11
2022-09-04T06:58:30.908Z,11
2022-09-04T07:01:01.400Z,13
2022-09-04T07:03:31.700Z,10
2022-09-04T07:06:02.201Z,11
2022-09-04T07:08:32.509Z,11
2022-09-04T07:11:02.999Z,15
2022-09-04T07:13:33.318Z,14
2022-09-04T07:16:03.783Z,11
2022-09-04T07:18:34.080Z,11
2022-09-04T07:21:04.554Z,11
2022-09-04T07:23:34.874Z,13
2022-09-04T07:26:05.287Z,12
2022-09-04T07:28:35.679Z,11
2022-09-04T07:31:06.220Z,17
2022-09-04T07:33:36.447Z,12
2022-09-04T07:36:06.851Z,11
2022-09-04T07:38:37.220Z,13
2022-09-04T07:41:07.663Z,11
2022-09-04T07:43:37.995Z,11
2022-09-04T07:46:08.451Z,11
2022-09-04T07:48:38.698Z,13
2022-09-04T07:51:10.005Z,12
2022-09-04T07:53:39.177Z,11
2022-09-04T07:56:09.565Z,10
2022-09-04T07:58:39.923Z,13
2022-09-04T08:01:10.350Z,13
2022-09-04T08:03:49.183Z,11
2022-09-04T08:06:11.112Z,12
2022-09-04T08:08:41.360Z,10
2022-09-04T08:11:11.722Z,13
2022-09-04T08:13:42.088Z,11
2022-09-04T08:16:12.442Z,10
2022-09-04T08:18:42.731Z,14
2022-09-04T08:21:13.100Z,14
2022-09-04T08:23:43.424Z,11
2022-09-04T08:26:13.779Z,11
2022-09-04T08:28:46.220Z,10
2022-09-04T08:31:14.508Z,10
2022-09-04T08:33:44.757Z,13
2022-09-04T08:36:15.100Z,10
2022-09-04T08:38:45.435Z,15
2022-09-04T08:41:15.788Z,11
2022-09-04T08:43:46.106Z,14
2022-09-04T08:46:16.574Z,12
2022-09-04T08:48:47.386Z,12
2022-09-04T08:51:17.658Z,10
2022-09-04T08:53:47.953Z,12
2022-09-04T08:56:18.497Z,11
2022-09-04T08:58:48.635Z,12
2022-09-04T09:01:19.094Z,12
2022-09-04T09:03:49.192Z,10
2022-09-04T09:06:19.493Z,10
2022-09-04T09:08:49.866Z,10
2022-09-04T09:11:20.098Z,11
2022-09-04T09:13:50.420Z,12
2022-09-04T09:16:20.827Z,10
2022-09-04T09:18:50.958Z,14
2022-09-04T09:21:21.275Z,11
2022-09-04T09:23:51.528Z,11
2022-09-04T09:26:21.831Z,9
2022-09-04T09:28:52.104Z,11
2022-09-04T09:31:22.417Z,10
2022-09-04T09:33:52.670Z,11
2022-09-04T09:36:23.001Z,7
2022-09-04T09:38:53.115Z,10
2022-09-04T09:41:23.445Z,11
2022-09-04T09:43:53.649Z,9
2022-09-04T09:46:23.981Z,10
2022-09-04T09:48:54.189Z,9
2022-09-04T09:51:24.391Z,10
2022-09-04T09:53:54.609Z,8
2022-09-04T09:56:24.864Z,10
2022-09-04T09:58:55.125Z,9
2022-09-04T10:01:25.425Z,12
2022-09-04T10:03:55.579Z,10
2022-09-04T10:06:25.769Z,10
2022-09-04T10:08:55.960Z,10
2022-09-04T10:11:26.198Z,10
2022-09-04T10:13:56.411Z,11
2022-09-04T10:16:26.738Z,9
2022-09-04T10:18:56.762Z,12
2022-09-04T10:21:27.543Z,9
2022-09-04T10:23:57.699Z,9
2022-09-04T10:26:29.300Z,12
2022-09-04T10:28:58.656Z,11
2022-09-04T10:31:28.835Z,8
2022-09-04T10:33:58.991Z,8
2022-09-04T10:36:29.174Z,8
2022-09-04T10:38:59.321Z,8
2022-09-04T10:41:29.489Z,8
2022-09-04T10:43:59.765Z,9
2022-09-04T10:46:29.843Z,8
2022-09-04T10:48:59.936Z,8
2022-09-04T10:51:30.208Z,7
2022-09-04T10:54:03.229Z,10
2022-09-04T10:56:30.433Z,10
2022-09-04T10:59:00.581Z,9
2022-09-04T11:01:30.841Z,9
2022-09-04T11:04:00.934Z,9
2022-09-04T11:06:31.006Z,11
2022-09-04T11:09:01.141Z,10
2022-09-04T11:11:31.337Z,9
2022-09-04T11:14:01.511Z,8
2022-09-04T11:16:31.751Z,7
2022-09-04T11:19:01.791Z,8
2022-09-04T11:21:31.983Z,9
2022-09-04T11:24:02.195Z,8
2022-09-04T11:26:32.392Z,8
2022-09-04T11:29:02.530Z,9
2022-09-04T11:31:32.722Z,9
2022-09-04T11:34:02.801Z,8
2022-09-04T11:36:33.598Z,9
2022-09-04T11:39:03.618Z,10
2022-09-04T11:41:33.828Z,10
2022-09-04T11:44:04.061Z,10
2022-09-04T11:46:34.178Z,9
2022-09-04T11:49:04.319Z,10
2022-09-04T11:51:34.501Z,10
2022-09-04T11:54:04.639Z,9
2022-09-04T11:56:35.365Z,9
2022-09-04T11:59:05.597Z,7
2022-09-04T12:01:35.672Z,9
2022-09-04T12:04:05.963Z,8
2022-09-04T12:06:35.944Z,11
2022-09-04T12:09:06.062Z,7
2022-09-04T12:11:36.287Z,9
2022-09-04T12:14:06.347Z,7
2022-09-04T12:16:36.555Z,8
2022-09-04T12:19:06.642Z,9
2022-09-04T12:21:36.871Z,10
2022-09-04T12:24:06.865Z,7
2022-09-04T12:26:37.388Z,7
2022-09-04T12:29:07.171Z,9
2022-09-04T12:31:37.331Z,8
2022-09-04T12:34:07.392Z,8
2022-09-04T12:36:37.543Z,8
2022-09-04T12:39:07.644Z,8
2022-09-04T12:41:37.978Z,7
2022-09-04T12:44:07.932Z,8
2022-09-04T12:46:38.046Z,9
2022-09-04T12:49:08.140Z,6
2022-09-04T12:51:38.274Z,8
2022-09-04T12:54:08.374Z,7
2022-09-04T12:56:38.531Z,7
2022-09-04T12:59:11.480Z,8
2022-09-04T13:01:38.837Z,7
2022-09-04T13:04:08.892Z,8
2022-09-04T13:06:39.005Z,7
2022-09-04T13:09:09.098Z,8
2022-09-04T13:11:39.219Z,6
2022-09-04T13:14:09.331Z,9
2022-09-04T13:16:39.506Z,8
2022-09-04T13:19:09.516Z,8
2022-09-04T13:21:39.748Z,7
2022-09-04T13:24:09.710Z,10
2022-09-04T13:26:39.838Z,8
2022-09-04T13:29:09.937Z,7
2022-09-04T13:31:40.168Z,7
2022-09-04T13:34:10.134Z,8
2022-09-04T13:36:40.361Z,8
2022-09-04T13:39:10.343Z,7
2022-09-04T13:41:40.450Z,7
2022-09-04T13:44:10.657Z,6
2022-09-04T13:46:40.758Z,7
2022-09-04T13:49:10.699Z,8
2022-09-04T13:51:40.892Z,8
2022-09-04T13:54:10.894Z,8
2022-09-04T13:56:40.985Z,8
2022-09-04T13:59:11.092Z,9
2022-09-04T14:01:41.271Z,6
2022-09-04T14:04:11.381Z,9
2022-09-04T14:06:41.344Z,9
2022-09-04T14:09:11.408Z,10
2022-09-04T14:11:41.531Z,8
2022-09-04T14:14:11.620Z,9
2022-09-04T14:16:41.710Z,6
2022-09-04T14:19:15.584Z,9
2022-09-04T14:26:42.159Z,6
2022-09-04T14:29:12.261Z,9
2022-09-04T14:30:29.437Z,9
2022-09-04T14:31:46.749Z,7
2022-09-04T14:32:06.636Z,9
2022-09-04T14:34:12.290Z,8
2022-09-04T14:36:42.406Z,10
2022-09-04T14:39:12.457Z,10
2022-09-04T14:41:42.556Z,10
2022-09-04T14:44:12.653Z,10
2022-09-04T14:46:42.866Z,7
2022-09-04T14:49:12.778Z,9
2022-09-04T14:51:42.882Z,10
2022-09-04T14:54:12.951Z,9
2022-09-04T14:56:43.088Z,8
2022-09-04T14:59:13.147Z,8
2022-09-04T15:01:43.301Z,9
2022-09-04T15:04:13.275Z,10
2022-09-04T15:07:00.950Z,8
2022-09-04T15:09:13.471Z,9
2022-09-04T15:11:43.580Z,9
2022-09-04T15:14:13.663Z,7
2022-09-04T15:16:43.838Z,8
2022-09-04T15:19:13.810Z,9
2022-09-04T15:21:43.899Z,8
2022-09-04T15:24:13.967Z,9
2022-09-04T15:26:46.566Z,11
2022-09-04T15:29:14.150Z,8
2022-09-04T15:31:44.306Z,9
2022-09-04T15:34:14.297Z,8
2022-09-04T15:36:44.494Z,9
2022-09-04T15:39:18.481Z,9
2022-09-04T15:41:44.634Z,7
2022-09-04T15:44:15.281Z,9
2022-09-04T15:46:45.423Z,9
2022-09-04T15:49:15.312Z,8
2022-09-04T15:51:45.405Z,7
2022-09-04T15:54:15.468Z,10
2022-09-04T15:56:45.580Z,8
2022-09-04T15:59:15.670Z,9
2022-09-04T16:01:45.819Z,9
2022-09-04T16:04:15.826Z,8
2022-09-04T16:06:45.921Z,8
2022-09-04T16:09:15.978Z,11
2022-09-04T16:11:46.075Z,8
2022-09-04T16:14:16.173Z,9
2022-09-04T16:16:46.247Z,8
2022-09-04T16:19:16.432Z,6
2022-09-04T16:21:46.553Z,9
2022-09-04T16:24:16.558Z,9
2022-09-04T16:26:46.629Z,7
2022-09-04T16:29:16.832Z,10
2022-09-04T16:31:46.830Z,10
2022-09-04T16:34:16.895Z,12
2022-09-04T16:36:47.010Z,10
2022-09-04T16:39:17.087Z,10
2022-09-04T16:41:47.226Z,8
2022-09-04T16:44:23.882Z,9
2022-09-04T16:46:48.251Z,7
2022-09-04T16:49:19.752Z,8
2022-09-04T16:51:47.636Z,8
2022-09-04T16:54:17.783Z,10
2022-09-04T16:56:47.907Z,8
2022-09-04T16:59:18.042Z,11
2022-09-04T17:01:48.105Z,9
2022-09-04T17:04:18.150Z,6
2022-09-04T17:06:48.405Z,7
2022-09-04T17:09:21.491Z,10
2022-09-04T17:11:55.998Z,8
2022-09-04T17:14:18.681Z,9
2022-09-04T17:16:48.732Z,8
2022-09-04T17:19:18.883Z,7
2022-09-04T17:27:24.627Z,9
2022-09-04T17:29:00.262Z,10
2022-09-04T17:29:15.234Z,7
2022-09-04T17:29:29.847Z,9
2022-09-04T17:31:49.557Z,9
2022-09-04T17:40:32.948Z,8
2022-09-04T17:40:42.889Z,8
2022-09-04T17:41:31.423Z,7
2022-09-04T17:42:03.273Z,7
2022-09-04T17:44:20.325Z,6
2022-09-04T17:46:50.414Z,8
2022-09-04T17:49:20.549Z,7
2022-09-04T17:51:50.718Z,7
2022-09-04T17:54:25.190Z,6
2022-09-04T17:56:51.030Z,7
2022-09-04T17:59:21.180Z,10
2022-09-04T18:01:51.420Z,10
2022-09-04T18:04:22.608Z,10
2022-09-04T18:06:51.620Z,8
2022-09-04T18:09:26.978Z,9
2022-09-04T18:12:00.606Z,8
2022-09-04T18:14:22.053Z,8
2022-09-04T18:17:11.128Z,7
2022-09-04T18:19:22.347Z,5
2022-09-04T18:22:22.153Z,11
2022-09-04T18:24:22.624Z,8
2022-09-04T18:26:52.757Z,8
2022-09-04T18:30:33.968Z,9
2022-09-04T18:37:17.802Z,9
2022-09-04T18:37:23.986Z,9
2022-09-04T18:37:25.133Z,8
2022-09-04T18:39:23.503Z,9
2022-09-04T18:48:30.488Z,9
2022-09-04T18:50:28.302Z,9
2022-09-04T18:50:38.246Z,10
2022-09-04T18:50:53.392Z,7
2022-09-04T18:51:54.270Z,8
2022-09-04T18:54:24.347Z,10
2022-09-04T18:56:54.506Z,7
2022-09-04T18:59:24.662Z,8
2022-09-04T19:01:55.021Z,11
2022-09-04T19:04:25.064Z,9
2022-09-04T19:06:55.730Z,8
2022-09-04T19:09:25.261Z,9
2022-09-04T19:11:55.441Z,10
2022-09-04T19:14:25.711Z,9
2022-09-04T19:16:55.961Z,8
2022-09-04T19:19:26.066Z,9
2022-09-04T19:21:57.749Z,10
2022-09-04T19:24:31.452Z,10
2022-09-04T19:26:56.438Z,8
2022-09-04T19:29:26.626Z,11
2022-09-04T19:31:57.477Z,10
2022-09-04T19:34:27.507Z,14
2022-09-04T19:37:19.040Z,13
2022-09-04T19:45:54.592Z,14
2022-09-04T19:45:54.750Z,15
2022-09-04T19:46:15.177Z,12
2022-09-04T19:46:59.653Z,37
2022-09-04T19:50:50.585Z,43
2022-09-04T19:53:24.172Z,40
2022-09-04T19:54:29.914Z,33
2022-09-04T19:57:32.974Z,18
2022-09-04T19:59:30.391Z,14
2022-09-04T20:02:03.696Z,46
2022-09-04T20:04:31.508Z,12
2022-09-04T20:07:01.535Z,12
2022-09-04T20:09:33.114Z,11
2022-09-04T20:12:01.976Z,11
2022-09-04T20:14:32.144Z,11
2022-09-04T20:17:02.443Z,12
2022-09-04T20:19:32.510Z,11
2022-09-04T20:22:02.733Z,11
2022-09-04T20:24:32.994Z,11
2022-09-04T20:27:03.134Z,11
2022-09-04T20:29:33.332Z,11
2022-09-04T20:32:03.569Z,11
2022-09-04T20:34:33.732Z,12
2022-09-04T20:37:03.940Z,11
2022-09-04T20:39:34.206Z,12
2022-09-04T20:42:04.411Z,11
2022-09-04T20:44:42.708Z,12
2022-09-04T20:52:40.831Z,12
2022-09-04T20:52:54.031Z,11
2022-09-04T20:52:57.618Z,11
2022-09-04T20:54:35.561Z,13
2022-09-04T21:00:14.707Z,12
2022-09-04T21:03:08.849Z,13
2022-09-04T21:03:24.382Z,14
2022-09-04T21:04:42.514Z,10
2022-09-04T21:07:07.384Z,12
2022-09-04T21:09:37.561Z,11
2022-09-04T21:12:07.831Z,14
2022-09-04T21:14:45.655Z,12
2022-09-04T21:17:34.777Z,10
2022-09-04T21:19:38.636Z,13
2022-09-04T21:22:17.236Z,13
2022-09-04T21:24:39.050Z,12
2022-09-04T21:27:09.309Z,9
2022-09-04T21:29:39.548Z,10
2022-09-04T21:32:09.777Z,11
2022-09-04T21:34:43.485Z,12
2022-09-04T21:37:10.243Z,13
2022-09-04T21:39:40.496Z,11
2022-09-04T21:42:16.603Z,11
2022-09-04T21:44:40.946Z,12
2022-09-04T21:47:11.231Z,14
2022-09-04T21:49:41.412Z,11
2022-09-04T21:52:12.242Z,13
2022-09-04T21:58:02.242Z,13
2022-09-04T22:02:18.871Z,14
2022-09-04T22:02:45.891Z,12
2022-09-04T22:02:46.278Z,13
2022-09-04T22:04:44.420Z,12
2022-09-04T22:09:54.181Z,13
2022-09-04T22:13:33.047Z,13
2022-09-04T22:13:46.657Z,12
2022-09-04T22:14:45.079Z,14
2022-09-04T22:17:15.402Z,15
2022-09-04T22:19:46.052Z,14
2022-09-04T22:22:16.342Z,15
2022-09-04T22:24:46.577Z,16
2022-09-04T22:27:16.860Z,14
2022-09-04T22:29:47.143Z,13
2022-09-04T22:32:20.330Z,12
2022-09-04T22:34:48.776Z,12
2022-09-04T22:37:19.064Z,11
2022-09-04T22:39:49.365Z,14
2022-09-04T22:42:20.433Z,13
2022-09-04T22:44:50.414Z,15
2022-09-04T22:47:20.685Z,14
2022-09-04T22:49:54.400Z,13
2022-09-04T22:52:21.195Z,14
2022-09-04T22:54:51.453Z,15
2022-09-04T22:57:21.771Z,15
2022-09-04T22:59:51.989Z,14
2022-09-04T23:02:30.797Z,14
2022-09-04T23:04:52.516Z,15
2022-09-04T23:13:42.132Z,11
2022-09-04T23:13:48.275Z,15
2022-09-04T23:14:02.936Z,13
2022-09-04T23:14:54.224Z,13
2022-09-04T23:17:24.477Z,14
2022-09-04T23:26:34.809Z,14
2022-09-04T23:26:38.383Z,14
2022-09-04T23:26:50.720Z,13
2022-09-04T23:27:28.869Z,13
2022-09-04T23:29:56.288Z,14
2022-09-04T23:32:26.105Z,15
2022-09-04T23:35:14.464Z,14
2022-09-04T23:37:26.622Z,15
2022-09-04T23:39:57.063Z,15
2022-09-04T23:42:27.157Z,15
2022-09-04T23:44:57.425Z,15
2022-09-04T23:47:48.633Z,15
2022-09-04T23:49:57.962Z,16
2022-09-04T23:52:28.261Z,15
2022-09-04T23:54:58.512Z,14
2022-09-04T23:57:28.821Z,16
2022-09-04T23:59:59.103Z,18
